Grande Italia — IBTF — position and weather

sailwx.info

Track history (hours):
 
Tides and Currents Weather Stations Pressure Air Temp Water Temp Dewpoint Dewpoint Depression Visibility Wind Speed Wind Dir Waves Ship Positions

Grande Italia

Last reported at 2014-Oct-30 08:28 UTC. Time now 2014-Oct-31 16:25 UTC.
Position N 38°17' E 015°43'.

Length 177 m; draft 8.2 m.

Type: Ship. MMSI: 247039300.

Date/timePositionNaut miles runAvg speedWind from/ knotsBaromVisibWave heightAir tempDewpointWater temp
2014-Oct-30 08:28N 38°17' E 015°43'1414.6
2014-Oct-30 07:32N 38°05' E 015°36'1513.8
2014-Oct-30 06:27N 37°52' E 015°46'37316.2
2014-Oct-29 07:25N 36°37' E 023°25'1416.1
2014-Oct-29 06:32N 36°49' E 023°35'1615.9
2014-Oct-29 05:33N 37°01' E 023°49'1615.9
2014-Oct-29 04:33N 37°13' E 024°01'1615.7
2014-Oct-29 03:33N 37°24' E 024°15'1615.9
2014-Oct-29 02:31N 37°38' E 024°27'1515.8
2014-Oct-29 01:33N 37°52' E 024°33'1916.0
2014-Oct-29 00:21N 38°09' E 024°44'11215.7
2014-Oct-28 17:14N 39°50' E 025°46'14713.7
2014-Oct-28 06:33N 40°45' E 028°44'1514.8
2014-Oct-28 05:33N 40°45' E 029°04'1414.1
2014-Oct-28 04:33N 40°45' E 029°23'1010.4
2014-Oct-28 03:33N 40°45' E 029°36'  
2014-Oct-24 12:33N 40°44' E 029°39'1111.3
2014-Oct-24 11:33N 40°44' E 029°24'1111.0
2014-Oct-24 10:34N 40°42' E 029°10'1414.4
2014-Oct-24 09:34N 40°38' E 028°52'17 0.6
2014-Oct-23 05:13N 40°25' E 029°06'4 5.9
2014-Oct-23 04:32N 40°26' E 029°01'1312.3
2014-Oct-23 03:27N 40°32' E 028°45'1314.4
2014-Oct-23 02:34N 40°41' E 028°57'1515.2
2014-Oct-23 01:34N 40°44' E 029°16'1211.8
2014-Oct-23 00:33N 40°45' E 029°32'1 0.0
2014-Oct-21 14:28N 40°45' E 029°31'8 9.0
2014-Oct-21 13:32N 40°43' E 029°20'1313.3
2014-Oct-21 12:33N 40°43' E 029°03'1514.6
2014-Oct-21 11:33N 40°43' E 028°44'1414.5
2014-Oct-21 10:33N 40°44' E 028°25'1614.8
2014-Oct-21 09:29N 40°44' E 028°04'4214.3
2014-Oct-21 06:32N 40°34' E 027°10'1414.5
2014-Oct-21 05:33N 40°28' E 026°53'4113.8
2014-Oct-21 02:33N 40°01' E 026°12'1211.4
2014-Oct-21 01:32N 39°56' E 025°58'1414.1
2014-Oct-21 00:33N 39°45' E 025°47'1615.3
2014-Oct-20 23:32N 39°31' E 025°38'1515.0
2014-Oct-20 22:33N 39°18' E 025°30'8914.6
2014-Oct-20 16:29N 37°58' E 024°39'1313.7
2014-Oct-20 15:30N 37°46' E 024°34'1313.5
2014-Oct-20 14:33N 37°35' E 024°26'1413.8
2014-Oct-20 13:33N 37°24' E 024°16'1514.7
2014-Oct-20 12:33N 37°12' E 024°05'1814.2
2014-Oct-20 11:16N 36°58' E 023°50'1013.8
2014-Oct-20 10:33N 36°50' E 023°42'1413.8
2014-Oct-20 09:33N 36°39' E 023°32'  
Track history (hours):
 
Tides and Currents Weather Stations Pressure Air Temp Water Temp Dewpoint Dewpoint Depression Visibility Wind Speed Wind Dir Waves Ship Positions

Grande Italia

Last reported at 2014-Oct-30 08:28 UTC. Time now 2014-Oct-31 16:25 UTC.
Position N 38°17' E 015°43'.

Length 177 m; draft 8.2 m.

Type: Ship. MMSI: 247039300.

Date/timePositionNaut miles runAvg speedWind from/ knotsBaromVisibWave heightAir tempDewpointWater temp
2014-Oct-30 08:28N 38°17' E 015°43'1414.6
2014-Oct-30 07:32N 38°05' E 015°36'1513.8
2014-Oct-30 06:27N 37°52' E 015°46'37316.2
2014-Oct-29 07:25N 36°37' E 023°25'1416.1
2014-Oct-29 06:32N 36°49' E 023°35'1615.9
2014-Oct-29 05:33N 37°01' E 023°49'1615.9
2014-Oct-29 04:33N 37°13' E 024°01'1615.7
2014-Oct-29 03:33N 37°24' E 024°15'1615.9
2014-Oct-29 02:31N 37°38' E 024°27'1515.8
2014-Oct-29 01:33N 37°52' E 024°33'1916.0
2014-Oct-29 00:21N 38°09' E 024°44'11215.7
2014-Oct-28 17:14N 39°50' E 025°46'14713.7
2014-Oct-28 06:33N 40°45' E 028°44'1514.8
2014-Oct-28 05:33N 40°45' E 029°04'1414.1
2014-Oct-28 04:33N 40°45' E 029°23'1010.4
2014-Oct-28 03:33N 40°45' E 029°36'  
2014-Oct-24 12:33N 40°44' E 029°39'1111.3
2014-Oct-24 11:33N 40°44' E 029°24'1111.0
2014-Oct-24 10:34N 40°42' E 029°10'1414.4
2014-Oct-24 09:34N 40°38' E 028°52'17 0.6
2014-Oct-23 05:13N 40°25' E 029°06'4 5.9
2014-Oct-23 04:32N 40°26' E 029°01'1312.3
2014-Oct-23 03:27N 40°32' E 028°45'1314.4
2014-Oct-23 02:34N 40°41' E 028°57'1515.2
2014-Oct-23 01:34N 40°44' E 029°16'1211.8
2014-Oct-23 00:33N 40°45' E 029°32'1 0.0
2014-Oct-21 14:28N 40°45' E 029°31'8 9.0
2014-Oct-21 13:32N 40°43' E 029°20'1313.3
2014-Oct-21 12:33N 40°43' E 029°03'1514.6
2014-Oct-21 11:33N 40°43' E 028°44'1414.5
2014-Oct-21 10:33N 40°44' E 028°25'1614.8
2014-Oct-21 09:29N 40°44' E 028°04'4214.3
2014-Oct-21 06:32N 40°34' E 027°10'1414.5
2014-Oct-21 05:33N 40°28' E 026°53'4113.8
2014-Oct-21 02:33N 40°01' E 026°12'1211.4
2014-Oct-21 01:32N 39°56' E 025°58'1414.1
2014-Oct-21 00:33N 39°45' E 025°47'1615.3
2014-Oct-20 23:32N 39°31' E 025°38'1515.0
2014-Oct-20 22:33N 39°18' E 025°30'8914.6
2014-Oct-20 16:29N 37°58' E 024°39'1313.7
2014-Oct-20 15:30N 37°46' E 024°34'1313.5
2014-Oct-20 14:33N 37°35' E 024°26'1413.8
2014-Oct-20 13:33N 37°24' E 024°16'1514.7
2014-Oct-20 12:33N 37°12' E 024°05'1814.2
2014-Oct-20 11:16N 36°58' E 023°50'1013.8
2014-Oct-20 10:33N 36°50' E 023°42'1413.8
2014-Oct-20 09:33N 36°39' E 023°32'  

Dump ship's entire track history